Time;durP1;ratioP1;P1;durP2;ratioP2;P2;SDS_P1;SDS_P2;PMS_P1;PMS_P2;Temp;Humidity;BMP_temperature;BMP_pressure;BME280_temperature;BME280_humidity;BME280_pressure;Samples;Min_cycle;Max_cycle;Signal;HPM_P1;HPM_P2
2023/04/25 00:01:46;;;;;;;22.67;4.40;;;7.40;99.90;;;;;;5153774;27;20385;-57
2023/04/25 00:04:11;;;;;;;19.70;4.25;;;7.30;99.90;;;;;;5153226;27;20042;-57
2023/04/25 00:06:37;;;;;;;20.20;4.40;;;7.40;99.90;;;;;;5153579;27;20045;-57
2023/04/25 00:09:10;;;;;;;25.67;4.47;;;7.30;99.90;;;;;;5153375;27;20121;-58
2023/04/25 00:11:36;;;;;;;23.95;4.60;;;7.30;99.90;;;;;;5153855;27;20096;-57
2023/04/25 00:14:03;;;;;;;21.88;4.53;;;7.30;99.90;;;;;;5154683;27;20411;-58
2023/04/25 00:16:33;;;;;;;21.55;4.18;;;7.30;99.90;;;;;;5157132;27;20067;-57
2023/04/25 00:18:58;;;;;;;20.00;4.93;;;7.30;99.90;;;;;;5156839;27;20039;-58
2023/04/25 00:21:25;;;;;;;19.95;4.38;;;7.20;99.90;;;;;;5157201;27;20113;-58
2023/04/25 00:23:52;;;;;;;19.88;4.00;;;7.30;99.90;;;;;;5138281;27;20051;-57
2023/04/25 00:26:20;;;;;;;27.27;5.90;;;7.30;99.90;;;;;;5156810;27;20155;-57
2023/04/25 00:28:46;;;;;;;27.67;4.68;;;7.30;99.90;;;;;;5156802;27;20464;-57
2023/04/25 00:31:12;;;;;;;24.73;4.68;;;7.30;99.90;;;;;;5138052;27;20070;-57
2023/04/25 00:33:38;;;;;;;22.17;4.18;;;7.20;99.90;;;;;;5156806;27;20111;-57
2023/04/25 00:36:04;;;;;;;22.52;4.65;;;7.20;99.90;;;;;;5156656;27;20039;-58
2023/04/25 00:38:29;;;;;;;19.40;4.07;;;7.20;99.90;;;;;;5156831;27;20027;-57
2023/04/25 00:40:55;;;;;;;20.05;3.83;;;7.20;99.90;;;;;;5156491;27;20040;-57
2023/04/25 00:43:21;;;;;;;21.23;3.25;;;7.20;99.90;;;;;;5156455;27;20057;-57
2023/04/25 00:45:48;;;;;;;17.40;4.20;;;7.20;99.90;;;;;;5156608;27;20042;-58
2023/04/25 00:48:17;;;;;;;24.58;4.20;;;7.10;99.90;;;;;;5137909;27;20059;-57
2023/04/25 00:50:47;;;;;;;;;;;7.00;99.90;;;;;;5157030;27;20035;-57
2023/04/25 00:53:13;;;;;;;16.08;3.60;;;7.10;99.90;;;;;;5156320;27;20364;-58
2023/04/25 00:55:39;;;;;;;13.52;2.97;;;7.00;99.90;;;;;;5156180;27;20034;-57
2023/04/25 00:58:04;;;;;;;13.32;2.80;;;7.00;99.90;;;;;;5156306;27;20049;-57
2023/04/25 01:00:30;;;;;;;16.98;3.17;;;7.00;99.90;;;;;;5137716;27;20117;-58
2023/04/25 01:02:56;;;;;;;17.77;3.05;;;7.00;99.90;;;;;;5156246;27;20107;-57
2023/04/25 01:05:22;;;;;;;22.05;3.22;;;7.00;99.90;;;;;;5156147;27;20495;-57
2023/04/25 01:07:48;;;;;;;9.23;2.70;;;7.00;99.90;;;;;;5155965;27;20034;-57
2023/04/25 01:10:13;;;;;;;20.13;3.28;;;7.00;99.90;;;;;;5137342;27;20046;-57
2023/04/25 01:12:39;;;;;;;17.17;3.53;;;7.00;99.90;;;;;;5137099;27;20038;-57
2023/04/25 01:15:06;;;;;;;16.27;3.15;;;7.10;99.90;;;;;;5156010;27;20038;-57
2023/04/25 01:17:33;;;;;;;16.33;3.30;;;7.10;99.90;;;;;;5155784;27;20057;-58
2023/04/25 01:19:59;;;;;;;12.85;2.60;;;7.00;99.90;;;;;;5155850;27;20042;-58
2023/04/25 01:22:25;;;;;;;18.58;3.03;;;7.00;99.90;;;;;;5155735;27;20039;-57
2023/04/25 01:24:51;;;;;;;14.05;2.55;;;7.00;99.90;;;;;;5155133;27;20488;-57
2023/04/25 01:27:18;;;;;;;15.82;3.28;;;7.00;99.90;;;;;;5155158;27;20100;-58
2023/04/25 01:29:44;;;;;;;13.20;2.70;;;7.70;99.90;;;;;;5156019;27;20038;-57
2023/04/25 01:32:10;;;;;;;13.80;3.25;;;7.00;99.90;;;;;;5155378;27;20510;-57
2023/04/25 01:34:35;;;;;;;12.90;3.45;;;7.00;99.90;;;;;;5155483;27;20042;-57
2023/04/25 01:37:04;;;;;;;19.13;3.53;;;7.00;99.90;;;;;;5155639;27;20043;-58
2023/04/25 01:39:30;;;;;;;15.77;2.72;;;7.00;99.90;;;;;;5155433;27;20042;-57
2023/04/25 01:41:56;;;;;;;11.15;2.70;;;7.00;99.90;;;;;;5155088;27;20097;-57
2023/04/25 01:44:22;;;;;;;16.63;3.30;;;7.00;99.90;;;;;;5155414;27;20439;-57
2023/04/25 01:46:47;;;;;;;13.43;3.30;;;7.00;99.90;;;;;;5155069;27;20043;-57
2023/04/25 01:49:13;;;;;;;15.40;2.92;;;7.00;99.90;;;;;;5155070;27;20130;-58
2023/04/25 01:51:39;;;;;;;12.98;2.95;;;7.00;99.90;;;;;;5136861;27;20069;-57
2023/04/25 01:54:05;;;;;;;17.17;3.10;;;7.00;99.90;;;;;;5155121;27;20046;-57
2023/04/25 01:56:32;;;;;;;17.42;4.03;;;6.90;99.90;;;;;;5154884;27;20469;-58
2023/04/25 01:58:58;;;;;;;15.55;2.88;;;7.00;99.90;;;;;;5154851;27;20468;-57
2023/04/25 02:01:23;;;;;;;12.45;3.08;;;7.00;99.90;;;;;;5155158;27;20151;-59
2023/04/25 02:03:50;;;;;;;17.70;3.30;;;7.00;99.90;;;;;;5154985;27;20454;-58
2023/04/25 02:06:15;;;;;;;22.67;3.53;;;7.00;99.90;;;;;;5154694;27;20041;-57
2023/04/25 02:08:41;;;;;;;13.15;3.05;;;7.00;99.90;;;;;;5154658;27;20030;-57
2023/04/25 02:11:06;;;;;;;14.50;4.00;;;6.90;99.90;;;;;;5154736;27;20050;-57
2023/04/25 02:13:32;;;;;;;15.25;3.22;;;6.90;99.90;;;;;;5154445;27;20400;-58
2023/04/25 02:15:58;;;;;;;21.25;2.97;;;6.90;99.90;;;;;;5154704;27;20047;-57
2023/04/25 02:18:23;;;;;;;13.80;2.70;;;7.00;99.90;;;;;;5155001;27;20034;-57
2023/04/25 02:20:49;;;;;;;13.15;2.58;;;7.00;99.90;;;;;;5154406;27;20031;-57
2023/04/25 02:23:15;;;;;;;11.30;2.88;;;6.90;99.90;;;;;;5154651;27;20045;-57
2023/04/25 02:25:41;;;;;;;17.02;2.90;;;6.90;99.90;;;;;;5154768;27;20054;-57
2023/04/25 02:28:07;;;;;;;15.40;2.78;;;6.80;99.90;;;;;;5154796;27;20031;-58
2023/04/25 02:30:32;;;;;;;9.90;1.98;;;6.80;99.90;;;;;;5154355;27;20038;-57
2023/04/25 02:32:58;;;;;;;17.35;3.40;;;6.70;99.90;;;;;;5154115;27;20045;-57
2023/04/25 02:35:24;;;;;;;17.05;3.42;;;6.70;99.90;;;;;;5154303;27;20023;-57
2023/04/25 02:37:50;;;;;;;24.65;3.45;;;6.70;99.90;;;;;;5153978;27;20388;-57
2023/04/25 02:40:15;;;;;;;11.77;2.90;;;6.80;99.90;;;;;;5135865;27;20034;-57
2023/04/25 02:42:41;;;;;;;17.10;3.00;;;6.70;99.90;;;;;;5154310;27;20408;-58
2023/04/25 02:45:07;;;;;;;15.75;2.97;;;6.60;99.90;;;;;;5154367;27;20476;-57
2023/04/25 02:47:33;;;;;;;10.27;2.47;;;6.60;99.90;;;;;;5135435;27;20991;-57
2023/04/25 02:49:58;;;;;;;18.08;3.28;;;6.60;99.90;;;;;;5154097;27;20051;-57
2023/04/25 02:52:25;;;;;;;11.50;2.45;;;6.50;99.90;;;;;;5135575;27;20085;-58
2023/04/25 02:54:50;;;;;;;13.85;2.75;;;6.50;99.90;;;;;;5134950;27;20046;-58
2023/04/25 02:57:16;;;;;;;16.20;2.55;;;6.60;99.90;;;;;;5154469;27;20046;-58
2023/04/25 02:59:42;;;;;;;11.00;2.50;;;6.60;99.90;;;;;;5154461;27;20204;-57
2023/04/25 03:02:07;;;;;;;13.75;2.30;;;6.70;99.90;;;;;;5154159;27;20038;-57
2023/04/25 03:04:33;;;;;;;13.13;2.80;;;6.60;99.90;;;;;;5154305;27;20091;-58
2023/04/25 03:06:59;;;;;;;11.55;2.30;;;6.60;99.90;;;;;;5154247;27;20041;-57
2023/04/25 03:09:24;;;;;;;11.00;2.28;;;6.60;99.90;;;;;;5153797;27;20098;-58
2023/04/25 03:11:50;;;;;;;13.90;2.45;;;6.60;99.90;;;;;;5154121;27;20038;-57
2023/04/25 03:14:16;;;;;;;12.15;2.85;;;6.60;99.90;;;;;;5153710;27;20031;-57
2023/04/25 03:16:41;;;;;;;18.75;2.50;;;6.60;99.90;;;;;;5153811;27;20039;-58
2023/04/25 03:19:07;;;;;;;15.63;2.70;;;6.60;99.90;;;;;;5153889;27;20079;-57
2023/04/25 03:21:34;;;;;;;15.18;2.20;;;6.60;99.90;;;;;;5153795;27;20035;-58
2023/04/25 03:24:03;;;;;;;8.43;2.05;;;6.50;99.90;;;;;;5153478;27;20039;-57
2023/04/25 03:26:29;;;;;;;12.57;2.65;;;6.50;99.90;;;;;;5153998;27;20160;-57
2023/04/25 03:28:55;;;;;;;15.05;2.17;;;6.40;99.90;;;;;;5153653;27;20043;-57
2023/04/25 03:31:22;;;;;;;11.85;2.65;;;6.40;99.90;;;;;;5153764;27;20038;-57
2023/04/25 03:33:47;;;;;;;10.88;1.98;;;6.20;99.90;;;;;;5153633;27;20043;-57
2023/04/25 03:36:13;;;;;;;11.10;1.92;;;6.20;99.90;;;;;;5153706;27;20042;-57
2023/04/25 03:38:41;;;;;;;16.98;2.25;;;6.20;99.90;;;;;;5153698;27;20042;-57
2023/04/25 03:41:07;;;;;;;16.42;2.30;;;6.20;99.90;;;;;;5153707;27;20046;-57
2023/04/25 03:43:32;;;;;;;13.68;2.45;;;6.10;99.90;;;;;;5153948;27;20031;-58
2023/04/25 03:45:58;;;;;;;12.85;2.72;;;6.00;99.90;;;;;;5153462;27;20062;-58
2023/04/25 03:48:26;;;;;;;15.50;2.65;;;6.00;99.90;;;;;;5153872;27;20099;-57
2023/04/25 03:50:53;;;;;;;11.68;2.30;;;6.00;99.90;;;;;;5157602;27;20160;-57
2023/04/25 03:53:18;;;;;;;10.38;2.58;;;6.00;99.90;;;;;;5157587;27;20388;-57
2023/04/25 03:55:44;;;;;;;15.35;2.42;;;6.00;99.90;;;;;;5157479;27;20045;-58
2023/04/25 03:58:10;;;;;;;14.77;2.83;;;5.90;99.90;;;;;;5157793;27;20155;-58
2023/04/25 04:00:36;;;;;;;14.23;2.38;;;6.00;99.90;;;;;;5157374;27;20038;-57
2023/04/25 04:03:02;;;;;;;14.30;2.70;;;6.10;99.90;;;;;;5157297;27;20384;-57
2023/04/25 04:05:28;;;;;;;16.45;2.58;;;6.10;99.90;;;;;;5157193;27;20034;-57
2023/04/25 04:07:54;;;;;;;12.32;2.53;;;6.00;99.90;;;;;;5138754;27;20110;-57
2023/04/25 04:10:20;;;;;;;10.68;2.35;;;5.90;99.90;;;;;;5156978;27;20433;-57
2023/04/25 04:12:45;;;;;;;17.48;2.28;;;5.80;99.90;;;;;;5157116;27;20039;-56
2023/04/25 04:15:11;;;;;;;17.58;3.00;;;5.80;99.90;;;;;;5156836;27;20125;-57
2023/04/25 04:17:37;;;;;;;10.90;2.25;;;5.90;99.90;;;;;;5156989;27;20058;-57
2023/04/25 04:20:04;;;;;;;12.57;2.45;;;5.80;99.90;;;;;;5157063;27;20486;-57
2023/04/25 04:22:30;;;;;;;16.42;2.83;;;5.80;99.90;;;;;;5156498;27;20046;-58
2023/04/25 04:24:56;;;;;;;15.77;2.50;;;5.80;99.90;;;;;;5138147;27;20046;-58
2023/04/25 04:27:22;;;;;;;12.48;2.20;;;5.80;99.90;;;;;;5120977;27;20042;-58
2023/04/25 04:29:48;;;;;;;13.70;2.20;;;5.80;99.90;;;;;;5156771;27;20043;-57
2023/04/25 04:32:15;;;;;;;17.27;2.78;;;5.70;99.90;;;;;;5156663;27;20039;-57
2023/04/25 04:34:41;;;;;;;13.15;2.03;;;5.70;99.90;;;;;;5156735;27;20147;-57
2023/04/25 04:37:06;;;;;;;13.20;2.10;;;5.70;99.90;;;;;;5156674;27;20448;-57
2023/04/25 04:39:36;;;;;;;13.80;2.67;;;5.70;99.90;;;;;;5156790;27;20042;-57
2023/04/25 04:42:03;;;;;;;12.98;3.05;;;5.70;99.90;;;;;;5144436;27;20039;-57
2023/04/25 04:44:32;;;;;;;12.93;2.35;;;5.60;99.90;;;;;;5135763;27;20095;-57
2023/04/25 04:46:58;;;;;;;15.23;2.67;;;5.60;99.90;;;;;;5135434;27;20087;-57
2023/04/25 04:49:24;;;;;;;14.55;2.55;;;5.50;99.90;;;;;;5135337;27;20047;-57
2023/04/25 04:51:50;;;;;;;14.88;3.13;;;5.50;99.90;;;;;;5135553;27;20045;-58
2023/04/25 04:54:16;;;;;;;15.18;2.90;;;5.50;99.90;;;;;;5135366;27;20087;-57
2023/04/25 04:56:42;;;;;;;10.50;2.50;;;5.50;99.90;;;;;;5135348;27;20062;-57
2023/04/25 04:59:07;;;;;;;10.98;2.33;;;5.50;99.90;;;;;;5135215;27;20031;-58
2023/04/25 05:01:35;;;;;;;12.23;2.75;;;5.60;99.90;;;;;;5135294;27;20035;-57
2023/04/25 05:04:02;;;;;;;15.80;2.47;;;5.60;99.90;;;;;;5135420;27;20477;-57
2023/04/25 05:06:31;;;;;;;14.48;3.92;;;5.60;99.90;;;;;;5135087;27;20515;-58
2023/04/25 05:08:57;;;;;;;8.88;2.60;;;5.70;99.90;;;;;;5135625;27;20123;-57
2023/04/25 05:11:24;;;;;;;12.23;2.38;;;5.70;99.90;;;;;;5135512;27;20039;-57
2023/04/25 05:13:52;;;;;;;7.47;1.80;;;5.70;99.90;;;;;;5135397;27;20081;-57
2023/04/25 05:16:17;;;;;;;11.63;2.13;;;5.60;99.90;;;;;;5134976;27;20060;-57
2023/04/25 05:18:43;;;;;;;11.35;2.28;;;5.50;99.90;;;;;;5135446;27;20031;-57
2023/04/25 05:21:09;;;;;;;8.38;2.13;;;5.50;99.90;;;;;;5135154;27;20031;-58
2023/04/25 05:23:34;;;;;;;7.43;2.20;;;5.50;99.90;;;;;;5135039;27;20473;-57
2023/04/25 05:26:00;;;;;;;10.00;1.92;;;5.40;99.90;;;;;;5134999;27;20491;-57
2023/04/25 05:28:26;;;;;;;9.18;2.00;;;5.40;99.90;;;;;;5135104;27;20035;-57
2023/04/25 05:30:52;;;;;;;11.00;1.77;;;5.40;99.90;;;;;;5134810;27;20038;-57
2023/04/25 05:33:18;;;;;;;7.15;1.27;;;5.40;99.90;;;;;;5135089;27;20046;-59
2023/04/25 05:35:43;;;;;;;5.57;1.73;;;5.60;99.90;;;;;;5134851;27;20118;-57
2023/04/25 05:38:09;;;;;;;7.95;1.73;;;5.70;99.90;;;;;;5134759;27;20456;-57
2023/04/25 05:40:35;;;;;;;11.82;2.65;;;5.80;99.90;;;;;;5134700;27;20027;-57
2023/04/25 05:43:00;;;;;;;9.93;2.58;;;5.90;99.90;;;;;;5134664;27;20034;-57
2023/04/25 05:45:26;;;;;;;9.05;2.00;;;6.10;99.90;;;;;;5134437;27;20027;-57
2023/04/25 05:47:52;;;;;;;12.50;2.28;;;6.20;99.90;;;;;;5134539;27;20459;-57
2023/04/25 05:50:17;;;;;;;14.27;2.83;;;6.40;99.90;;;;;;5134494;27;20185;-57
2023/04/25 05:52:43;;;;;;;8.68;1.98;;;6.60;99.90;;;;;;5134666;27;20039;-57
2023/04/25 05:55:09;;;;;;;8.07;2.10;;;6.70;99.90;;;;;;5134396;27;20039;-57
2023/04/25 05:57:35;;;;;;;7.68;1.25;;;6.60;99.90;;;;;;5134320;27;20059;-58
2023/04/25 06:00:01;;;;;;;12.90;2.15;;;6.60;99.90;;;;;;5134337;27;20447;-58
2023/04/25 06:02:27;;;;;;;11.07;2.50;;;6.60;99.90;;;;;;5134145;27;20507;-58
2023/04/25 06:04:53;;;;;;;7.65;2.13;;;6.60;99.90;;;;;;5115681;27;20074;-58
2023/04/25 06:07:20;;;;;;;11.98;2.60;;;6.50;99.90;;;;;;5134443;27;20047;-58
2023/04/25 06:09:45;;;;;;;11.35;2.08;;;6.50;99.90;;;;;;5115953;27;20153;-57
2023/04/25 06:12:11;;;;;;;9.68;2.00;;;6.40;99.90;;;;;;5133857;27;20458;-57
2023/04/25 06:14:37;;;;;;;15.32;2.80;;;6.40;99.90;;;;;;5115161;27;20169;-58
2023/04/25 06:17:08;;;;;;;7.28;2.47;;;6.40;99.90;;;;;;5134181;27;20035;-58
2023/04/25 06:19:35;;;;;;;11.27;2.35;;;6.50;99.90;;;;;;5098866;27;20058;-58
2023/04/25 06:22:01;;;;;;;13.05;2.60;;;6.50;99.90;;;;;;5134562;27;20039;-57
2023/04/25 06:24:26;;;;;;;9.48;2.15;;;6.70;99.90;;;;;;5134625;27;20605;-57
2023/04/25 06:26:52;;;;;;;11.15;2.35;;;7.00;99.90;;;;;;5134352;27;20068;-58
2023/04/25 06:29:18;;;;;;;17.10;2.47;;;7.50;99.90;;;;;;5134155;27;20054;-57
2023/04/25 06:31:44;;;;;;;12.00;2.30;;;7.90;99.90;;;;;;5134005;27;20035;-57
2023/04/25 06:34:10;;;;;;;9.75;2.33;;;8.00;99.90;;;;;;5134153;27;20192;-57
2023/04/25 06:36:35;;;;;;;9.70;2.15;;;8.20;99.90;;;;;;5134261;27;20523;-57
2023/04/25 06:39:01;;;;;;;14.38;1.95;;;8.60;99.90;;;;;;5133903;27;20035;-57
2023/04/25 06:41:26;;;;;;;8.60;1.80;;;8.70;99.90;;;;;;5134275;27;20103;-58
2023/04/25 06:43:52;;;;;;;8.95;2.10;;;8.70;99.90;;;;;;5134078;27;20380;-57
2023/04/25 06:46:18;;;;;;;6.22;1.63;;;8.80;99.90;;;;;;5133905;27;20053;-58
2023/04/25 06:48:44;;;;;;;9.38;1.80;;;8.90;99.90;;;;;;5133397;27;20540;-57
2023/04/25 06:51:10;;;;;;;10.73;2.38;;;9.00;99.90;;;;;;5133478;27;20126;-57
2023/04/25 06:53:36;;;;;;;11.13;2.97;;;8.60;99.90;;;;;;5114877;28;20048;-57
2023/04/25 06:56:02;;;;;;;11.85;2.22;;;8.30;99.90;;;;;;5133849;27;20039;-57
2023/04/25 06:58:27;;;;;;;10.27;2.08;;;8.00;99.90;;;;;;5115315;27;20043;-57
2023/04/25 07:00:53;;;;;;;8.00;1.73;;;7.90;99.90;;;;;;5133513;27;20114;-57
2023/04/25 07:03:19;;;;;;;9.65;1.70;;;7.90;99.90;;;;;;5114651;28;20065;-57
2023/04/25 07:05:45;;;;;;;15.48;1.58;;;7.80;99.90;;;;;;5133665;28;20108;-57
2023/04/25 07:08:11;;;;;;;11.60;1.95;;;7.90;99.90;;;;;;5133969;28;20060;-58
2023/04/25 07:10:37;;;;;;;10.50;1.98;;;8.00;99.90;;;;;;5114568;28;20051;-57
2023/04/25 07:13:03;;;;;;;10.75;1.52;;;8.10;99.90;;;;;;5133508;28;20035;-58
2023/04/25 07:15:28;;;;;;;9.18;2.05;;;8.10;99.90;;;;;;5133388;28;20050;-58
2023/04/25 07:17:54;;;;;;;16.65;2.28;;;8.20;99.90;;;;;;5133700;28;20094;-58
2023/04/25 07:20:20;;;;;;;6.97;1.67;;;8.40;99.90;;;;;;5133705;28;20044;-57
2023/04/25 07:22:45;;;;;;;4.45;1.17;;;8.30;99.90;;;;;;5133412;27;20119;-58
2023/04/25 07:25:11;;;;;;;6.60;1.30;;;8.30;99.90;;;;;;5137107;27;20035;-57
2023/04/25 07:27:37;;;;;;;9.50;2.75;;;8.40;99.90;;;;;;5137722;27;20035;-58
2023/04/25 07:30:03;;;;;;;7.40;1.10;;;8.50;99.90;;;;;;5137610;27;20438;-58
2023/04/25 07:32:30;;;;;;;9.27;1.65;;;9.00;99.90;;;;;;5119007;27;20050;-58
2023/04/25 07:34:55;;;;;;;11.93;1.90;;;8.80;99.90;;;;;;5118744;27;20049;-57
2023/04/25 07:37:21;;;;;;;7.63;1.48;;;8.90;99.90;;;;;;5137292;27;20039;-58
2023/04/25 07:39:47;;;;;;;8.60;1.67;;;9.10;99.90;;;;;;5137749;27;20035;-57
2023/04/25 07:42:13;;;;;;;7.05;1.38;;;9.10;99.90;;;;;;5137479;27;20046;-57
2023/04/25 07:44:39;;;;;;;8.88;1.63;;;9.00;99.90;;;;;;5137065;27;20043;-58
2023/04/25 07:47:09;;;;;;;6.15;2.15;;;9.00;99.90;;;;;;5101673;27;20047;-58
2023/04/25 07:49:36;;;;;;;5.15;0.90;;;8.90;99.90;;;;;;5137035;27;20065;-58
2023/04/25 07:52:03;;;;;;;4.47;1.00;;;8.70;99.90;;;;;;5136852;27;20050;-57
2023/04/25 07:54:29;;;;;;;3.97;1.00;;;8.60;99.90;;;;;;5136901;27;20046;-58
2023/04/25 07:56:55;;;;;;;4.78;1.17;;;8.70;99.90;;;;;;5137230;27;20439;-58
2023/04/25 07:59:21;;;;;;;5.82;0.93;;;8.70;99.90;;;;;;5137132;27;20477;-58
2023/04/25 08:01:47;;;;;;;2.78;0.77;;;8.90;99.90;;;;;;5118752;27;20042;-57
2023/04/25 08:04:13;;;;;;;4.10;1.10;;;9.30;99.90;;;;;;5137214;27;20049;-58
2023/04/25 08:06:40;;;;;;;6.25;1.23;;;9.40;99.90;;;;;;5137175;27;20043;-57
2023/04/25 08:09:06;;;;;;;4.85;0.70;;;9.40;99.90;;;;;;5137023;27;20117;-58
2023/04/25 08:11:31;;;;;;;3.08;0.82;;;9.30;99.90;;;;;;5100496;27;20151;-58
2023/04/25 08:13:57;;;;;;;6.72;0.90;;;8.80;99.90;;;;;;5144139;27;20042;-60
2023/04/25 08:16:23;;;;;;;8.25;1.20;;;8.20;99.90;;;;;;5157519;27;20034;-60
2023/04/25 08:18:50;;;;;;;5.07;1.58;;;7.70;99.90;;;;;;5157109;27;20034;-58
2023/04/25 08:21:16;;;;;;;3.47;0.82;;;7.20;99.90;;;;;;5138943;27;20043;-57
2023/04/25 08:23:41;;;;;;;4.22;1.20;;;7.20;99.90;;;;;;5156817;27;20042;-58
2023/04/25 08:26:07;;;;;;;4.70;0.75;;;7.40;99.90;;;;;;5157539;27;20035;-57
2023/04/25 08:28:33;;;;;;;5.88;1.10;;;7.60;99.90;;;;;;5157171;27;20388;-58
2023/04/25 08:30:58;;;;;;;4.60;1.05;;;7.60;99.90;;;;;;5157094;27;20047;-58
2023/04/25 08:33:24;;;;;;;3.92;0.77;;;7.60;99.90;;;;;;5156658;27;20087;-58
2023/04/25 08:35:50;;;;;;;3.83;0.90;;;7.70;99.90;;;;;;5156499;27;20042;-57
2023/04/25 08:38:17;;;;;;;4.28;0.82;;;7.70;99.90;;;;;;5157064;27;20041;-58
2023/04/25 08:40:44;;;;;;;4.28;1.33;;;7.70;99.90;;;;;;5138678;27;20383;-58
2023/04/25 08:43:14;;;;;;;5.07;1.15;;;7.80;99.90;;;;;;5137159;27;20103;-57
2023/04/25 08:45:41;;;;;;;6.40;1.25;;;7.90;99.90;;;;;;5138011;27;20484;-58
2023/04/25 08:48:17;;;;;;;2.22;0.90;;;8.10;99.90;;;;;;5138112;27;20046;-58
2023/04/25 08:50:51;;;;;;;4.28;1.00;;;8.20;99.90;;;;;;5156934;27;20411;-57
2023/04/25 08:53:21;;;;;;;5.07;1.48;;;8.30;99.90;;;;;;5156774;27;20357;-58
2023/04/25 08:55:48;;;;;;;3.00;1.00;;;8.40;99.90;;;;;;5156946;27;20043;-57
2023/04/25 08:58:15;;;;;;;3.83;0.98;;;8.50;99.90;;;;;;5156871;27;20031;-58
2023/04/25 09:00:40;;;;;;;3.25;1.00;;;8.60;99.90;;;;;;5156423;27;20038;-58
2023/04/25 09:03:06;;;;;;;3.60;0.90;;;8.70;99.90;;;;;;5156345;27;20031;-58
2023/04/25 09:05:35;;;;;;;6.38;1.15;;;8.90;99.90;;;;;;5156596;27;20114;-58
2023/04/25 09:08:01;;;;;;;9.40;1.98;;;9.60;99.90;;;;;;5156647;27;20095;-58
2023/04/25 09:10:28;;;;;;;2.65;1.10;;;10.00;99.90;;;;;;5156720;27;20066;-58
2023/04/25 09:13:14;;;;;;;4.28;1.25;;;10.50;99.90;;;;;;5156471;27;20042;-57
2023/04/25 09:16:01;;;;;;;7.25;1.42;;;10.60;99.90;;;;;;5156410;27;20070;-58
2023/04/25 09:18:27;;;;;;;10.70;1.55;;;11.10;99.90;;;;;;5156326;27;20035;-59
2023/04/25 09:20:54;;;;;;;13.98;1.92;;;11.50;99.90;;;;;;5155997;27;20369;-58
2023/04/25 09:23:22;;;;;;;5.65;1.52;;;11.70;99.90;;;;;;5155909;27;20035;-59
2023/04/25 09:25:53;;;;;;;9.70;1.70;;;11.90;99.90;;;;;;5156181;27;20039;-58
2023/04/25 09:28:26;;;;;;;9.15;1.90;;;11.60;99.90;;;;;;5137376;27;20099;-58
2023/04/25 09:30:58;;;;;;;9.35;1.20;;;11.50;99.90;;;;;;5155855;27;20046;-59
2023/04/25 09:33:29;;;;;;;7.72;1.67;;;10.60;99.90;;;;;;5155649;27;20042;-58
2023/04/25 09:36:08;;;;;;;11.77;1.67;;;10.00;99.90;;;;;;5155567;27;20038;-58
2023/04/25 09:38:45;;;;;;;7.22;1.80;;;9.70;99.90;;;;;;5155957;27;20030;-58
2023/04/25 09:41:11;;;;;;;7.78;2.13;;;9.80;99.90;;;;;;5154996;27;20042;-58
2023/04/25 09:43:38;;;;;;;7.35;1.75;;;10.40;99.90;;;;;;5135374;27;20489;-58
2023/04/25 09:46:09;;;;;;;5.10;1.52;;;10.80;99.90;;;;;;5143935;27;20492;-58
2023/04/25 09:48:35;;;;;;;10.52;1.50;;;11.20;99.90;;;;;;5143576;27;20409;-58
2023/04/25 09:51:13;;;;;;;13.48;1.92;;;11.50;99.90;;;;;;5146169;27;20039;-57
2023/04/25 09:53:41;;;;;;;10.52;2.35;;;11.40;99.90;;;;;;5129764;27;20047;-57
2023/04/25 09:56:09;;;;;;;6.47;1.80;;;11.40;99.90;;;;;;5145510;27;20385;-57
2023/04/25 09:58:36;;;;;;;14.70;3.45;;;11.50;99.90;;;;;;5148865;27;20034;-57
2023/04/25 10:01:16;;;;;;;9.38;1.63;;;11.10;99.90;;;;;;5134219;27;20034;-57
2023/04/25 10:03:43;;;;;;;8.60;2.05;;;11.10;99.90;;;;;;5144377;27;20046;-57
2023/04/25 10:06:20;;;;;;;7.47;1.75;;;11.30;99.90;;;;;;5143259;27;20121;-57
2023/04/25 10:08:51;;;;;;;9.45;1.67;;;11.50;99.90;;;;;;5145167;27;20058;-57
2023/04/25 10:11:17;;;;;;;8.93;2.20;;;11.70;99.90;;;;;;5146808;27;20045;-58
2023/04/25 10:13:44;;;;;;;9.05;1.40;;;11.90;99.90;;;;;;5155224;27;20042;-57
2023/04/25 10:16:10;;;;;;;12.77;1.73;;;12.10;99.90;;;;;;5141906;27;20160;-57
2023/04/25 10:18:37;;;;;;;10.77;1.98;;;12.40;99.90;;;;;;5147942;27;20145;-57
2023/04/25 10:21:04;;;;;;;11.93;2.85;;;12.40;99.90;;;;;;5154688;27;20835;-57
2023/04/25 10:23:31;;;;;;;13.55;2.58;;;12.00;99.90;;;;;;5136304;27;20039;-59
2023/04/25 10:25:58;;;;;;;7.00;1.92;;;11.60;99.90;;;;;;5154906;27;20654;-57
2023/04/25 10:28:24;;;;;;;10.35;2.17;;;11.10;99.90;;;;;;5137454;27;20035;-59
2023/04/25 10:31:08;;;;;;;6.60;1.30;;;10.70;99.90;;;;;;5135226;27;20053;-57
2023/04/25 10:33:37;;;;;;;8.73;1.75;;;10.80;99.90;;;;;;5154614;27;20046;-57
2023/04/25 10:36:22;;;;;;;9.63;1.92;;;11.10;99.90;;;;;;5154674;27;20034;-57
2023/04/25 10:38:52;;;;;;;12.07;2.47;;;11.10;99.90;;;;;;5154916;27;20031;-57
2023/04/25 10:41:20;;;;;;;7.25;2.00;;;11.00;99.90;;;;;;5154541;27;20042;-57
2023/04/25 10:43:58;;;;;;;9.88;1.60;;;10.90;99.90;;;;;;5154183;27;20504;-57
2023/04/25 10:46:30;;;;;;;7.32;1.40;;;10.80;99.90;;;;;;5154603;27;20039;-56
2023/04/25 10:49:01;;;;;;;7.65;1.60;;;10.10;99.90;;;;;;5153677;27;20125;-56
2023/04/25 10:51:34;;;;;;;6.57;1.40;;;9.80;99.90;;;;;;5153224;27;20031;-56
2023/04/25 10:54:08;;;;;;;8.38;1.67;;;10.10;99.90;;;;;;5154003;27;20046;-57
2023/04/25 10:56:39;;;;;;;7.28;1.60;;;10.30;99.90;;;;;;5133774;27;20031;-57
2023/04/25 10:59:12;;;;;;;5.32;1.50;;;10.10;99.90;;;;;;5139289;27;20039;-57
2023/04/25 11:01:43;;;;;;;7.28;1.70;;;10.50;99.90;;;;;;5154077;27;20045;-58
2023/04/25 11:04:29;;;;;;;10.00;2.67;;;11.00;99.90;;;;;;5153418;27;20034;-58
2023/04/25 11:07:13;;;;;;;6.90;1.63;;;11.40;99.90;;;;;;5154041;27;20038;-58
2023/04/25 11:09:40;;;;;;;4.10;1.00;;;11.90;99.90;;;;;;5133431;27;20039;-58
2023/04/25 11:12:08;;;;;;;5.80;1.67;;;12.20;99.90;;;;;;5133546;28;20385;-57
2023/04/25 11:14:34;;;;;;;10.50;1.52;;;12.20;99.90;;;;;;5145010;27;20164;-58
2023/04/25 11:17:02;;;;;;;10.43;2.28;;;12.10;99.90;;;;;;5154130;27;20035;-58
2023/04/25 11:19:29;;;;;;;4.72;1.80;;;12.20;99.90;;;;;;5153841;27;20110;-57
2023/04/25 11:21:59;;;;;;;5.65;1.45;;;12.30;99.90;;;;;;5153765;27;20034;-57
2023/04/25 11:24:32;;;;;;;3.80;1.08;;;12.30;99.90;;;;;;5154067;27;20107;-57
2023/04/25 11:26:59;;;;;;;5.28;1.20;;;12.20;99.90;;;;;;5132770;27;20043;-57
2023/04/25 11:29:29;;;;;;;7.93;1.20;;;12.60;99.90;;;;;;5133064;27;20090;-58
2023/04/25 11:31:57;;;;;;;7.38;1.35;;;13.00;99.90;;;;;;5133086;27;20114;-58
2023/04/25 11:34:24;;;;;;;7.80;1.65;;;13.10;99.90;;;;;;5133036;28;20432;-57
2023/04/25 11:36:51;;;;;;;5.68;1.55;;;13.10;99.90;;;;;;5133031;28;20067;-56
2023/04/25 11:39:18;;;;;;;4.63;1.00;;;13.00;99.90;;;;;;5132547;27;20385;-57
2023/04/25 11:41:44;;;;;;;6.55;1.50;;;13.20;99.90;;;;;;5132819;27;20031;-57
2023/04/25 11:44:09;;;;;;;7.90;1.77;;;13.10;99.90;;;;;;5139689;27;20049;-57
2023/04/25 11:46:35;;;;;;;7.68;1.63;;;13.20;99.90;;;;;;5153631;27;20099;-57
2023/04/25 11:49:02;;;;;;;7.70;1.98;;;13.00;99.90;;;;;;5153405;27;20051;-57
2023/04/25 11:51:27;;;;;;;12.32;1.92;;;12.60;99.90;;;;;;5153311;27;20117;-58
2023/04/25 11:53:53;;;;;;;7.07;1.30;;;12.60;99.90;;;;;;5139094;27;20453;-57
2023/04/25 11:56:20;;;;;;;5.05;1.20;;;12.60;99.90;;;;;;5114101;27;20545;-57
2023/04/25 11:59:16;;;;;;;7.32;1.35;;;12.60;99.90;;;;;;5132651;28;20423;-57
2023/04/25 12:01:48;;;;;;;6.35;1.20;;;12.30;99.90;;;;;;5029484;28;20124;-57
2023/04/25 12:04:24;;;;;;;8.60;1.48;;;12.10;99.90;;;;;;5029581;28;20038;-57
2023/04/25 12:06:53;;;;;;;8.63;1.50;;;12.20;99.90;;;;;;5029488;28;20186;-58
2023/04/25 12:09:28;;;;;;;5.38;1.95;;;11.90;99.90;;;;;;5034477;28;20078;-57
2023/04/25 12:11:58;;;;;;;8.95;1.20;;;11.60;99.90;;;;;;5052933;28;20450;-57
2023/04/25 12:14:34;;;;;;;9.35;1.33;;;11.40;99.90;;;;;;5047369;28;20044;-57
2023/04/25 12:17:03;;;;;;;7.20;1.85;;;11.20;99.90;;;;;;5032978;28;20452;-57
2023/04/25 12:19:36;;;;;;;8.35;1.80;;;11.40;99.90;;;;;;5032710;28;20049;-57
2023/04/25 12:22:03;;;;;;;7.47;1.42;;;11.40;99.90;;;;;;5032956;28;20418;-57
2023/04/25 12:24:29;;;;;;;7.80;1.50;;;11.10;99.90;;;;;;5032738;28;20053;-58
2023/04/25 12:27:06;;;;;;;8.68;1.27;;;11.60;99.90;;;;;;5032776;28;20128;-58
2023/04/25 12:29:33;;;;;;;7.07;1.45;;;12.00;99.90;;;;;;5032576;28;20045;-58
2023/04/25 12:31:59;;;;;;;5.47;1.70;;;12.70;99.90;;;;;;5032790;28;20514;-57
2023/04/25 12:34:25;;;;;;;5.97;1.98;;;12.90;99.90;;;;;;5032700;28;20068;-58
2023/04/25 12:36:52;;;;;;;13.20;1.50;;;12.40;99.90;;;;;;5033273;27;20491;-57
2023/04/25 12:39:19;;;;;;;6.95;1.30;;;12.10;99.90;;;;;;5140335;27;20026;-58
2023/04/25 12:41:46;;;;;;;7.35;1.33;;;12.30;99.90;;;;;;5156693;27;20371;-57
2023/04/25 12:44:12;;;;;;;10.00;1.65;;;12.00;99.90;;;;;;5134072;27;20383;-57
2023/04/25 12:46:38;;;;;;;5.70;1.52;;;12.20;99.90;;;;;;5136093;27;20075;-58
2023/04/25 12:49:07;;;;;;;6.70;1.33;;;12.20;99.90;;;;;;5135424;27;20094;-57